Time;durP1;ratioP1;P1;durP2;ratioP2;P2;SDS_P1;SDS_P2;PMS_P1;PMS_P2;Temp;Humidity;BMP_temperature;BMP_pressure;BME280_temperature;BME280_humidity;BME280_pressure;Samples;Min_cycle;Max_cycle;Signal;HPM_P1;HPM_P2
2021/03/31 00:00:25;;;;;;;0.25;0.20;;;;;;;21.57;44.27;101561.44;5060394;28;20028;-61
2021/03/31 00:02:52;;;;;;;1.48;0.30;;;;;;;21.54;44.73;101553.59;5078741;28;20036;-61
2021/03/31 00:05:18;;;;;;;0.85;0.20;;;;;;;21.53;44.41;101557.34;5078574;28;20369;-61
2021/03/31 00:07:43;;;;;;;0.20;0.10;;;;;;;21.57;43.94;101558.72;5078696;28;20059;-61
2021/03/31 00:10:16;;;;;;;0.20;0.10;;;;;;;21.61;43.83;101554.59;5078397;28;20107;-62
2021/03/31 00:12:42;;;;;;;0.75;0.20;;;;;;;21.62;43.84;101556.28;5078507;28;20075;-61
2021/03/31 00:15:07;;;;;;;0.20;0.20;;;;;;;21.68;44.00;101546.53;5078389;28;20467;-61
2021/03/31 00:17:33;;;;;;;0.30;0.17;;;;;;;21.63;44.21;101547.03;5078495;28;20111;-60
2021/03/31 00:19:58;;;;;;;1.02;0.30;;;;;;;21.67;44.96;101547.53;5078116;28;20028;-62
2021/03/31 00:22:23;;;;;;;0.75;0.32;;;;;;;21.59;44.26;101551.16;5078814;28;20016;-61
2021/03/31 00:24:48;;;;;;;0.25;0.15;;;;;;;21.51;44.82;101545.75;5078532;28;20077;-61
2021/03/31 00:27:14;;;;;;;0.20;0.10;;;;;;;21.46;44.47;101551.72;5078296;28;20027;-61
2021/03/31 00:29:39;;;;;;;0.70;0.30;;;;;;;21.46;44.12;101545.38;5074424;28;20403;-61
2021/03/31 00:32:05;;;;;;;0.73;0.20;;;;;;;21.50;44.03;101546.75;5074982;28;20021;-64
2021/03/31 00:34:30;;;;;;;0.30;0.20;;;;;;;21.48;43.90;101546.06;5075099;28;20048;-61
2021/03/31 00:36:55;;;;;;;0.22;0.20;;;;;;;21.50;44.03;101542.16;5075085;28;20475;-61
2021/03/31 00:39:21;;;;;;;1.08;0.38;;;;;;;21.52;43.28;101555.66;5074998;28;20040;-62
2021/03/31 00:41:46;;;;;;;0.90;0.30;;;;;;;21.53;43.36;101549.16;5074962;28;20042;-61
2021/03/31 00:44:11;;;;;;;0.50;0.20;;;;;;;21.55;43.24;101545.22;5074772;28;20024;-61
2021/03/31 00:46:36;;;;;;;0.25;0.10;;;;;;;21.58;43.74;101549.47;5075060;28;20038;-61
2021/03/31 00:49:02;;;;;;;1.00;0.10;;;;;;;21.60;43.88;101542.78;5074824;28;20024;-64
2021/03/31 00:51:28;;;;;;;0.30;0.13;;;;;;;21.53;43.81;101547.25;5074506;28;20115;-61
2021/03/31 00:53:53;;;;;;;0.68;0.30;;;;;;;21.47;43.23;101547.94;5074791;28;20029;-61
2021/03/31 00:56:19;;;;;;;0.52;0.30;;;;;;;21.41;43.06;101547.81;5074592;28;20030;-62
2021/03/31 00:58:44;;;;;;;0.47;0.17;;;;;;;21.41;42.89;101547.81;5074844;28;20028;-61
2021/03/31 01:01:10;;;;;;;0.43;0.20;;;;;;;21.41;42.76;101547.81;5074503;28;20482;-62
2021/03/31 01:03:35;;;;;;;0.22;0.20;;;;;;;21.42;42.58;101554.97;5074689;28;20063;-61
2021/03/31 01:06:01;;;;;;;0.90;0.20;;;;;;;21.41;42.77;101545.06;5074500;28;20026;-61
2021/03/31 01:08:26;;;;;;;0.77;0.25;;;;;;;21.42;42.90;101552.25;5074416;28;20031;-62
2021/03/31 01:10:57;;;;;;;0.55;0.17;;;;;;;21.44;43.67;101552.91;5074512;28;20481;-61
2021/03/31 01:13:52;;;;;;;0.52;0.20;;;;;;;21.48;44.43;101537.84;5074403;28;20025;-62
2021/03/31 01:16:45;;;;;;;0.20;0.20;;;;;;;21.48;45.44;101537.84;5074297;28;20032;-61
2021/03/31 01:19:51;;;;;;;0.65;0.20;;;;;;;21.49;45.92;101537.69;5074213;28;20047;-61
2021/03/31 01:22:47;;;;;;;0.32;0.10;;;;;;;21.43;46.05;101534.81;5061875;28;20379;-61
2021/03/31 01:25:36;;;;;;;0.10;0.10;;;;;;;21.38;46.62;101523.53;5074045;28;20329;-62
2021/03/31 01:28:11;;;;;;;0.30;0.10;;;;;;;21.37;46.43;101530.91;5073985;28;20020;-61
2021/03/31 01:31:07;;;;;;;0.73;0.20;;;;;;;21.36;46.23;101531.06;5074141;28;20146;-62
2021/03/31 01:33:57;;;;;;;0.40;0.20;;;;;;;21.39;46.41;101527.97;5073864;28;20122;-61
2021/03/31 01:36:24;;;;;;;0.73;0.25;;;;;;;21.38;46.22;101540.81;5073934;28;20042;-61
2021/03/31 01:38:52;;;;;;;0.30;0.30;;;;;;;21.39;45.75;101534.31;5074058;28;20028;-61
2021/03/31 01:41:20;;;;;;;0.63;0.30;;;;;;;21.43;45.88;101534.81;5073436;28;20655;-61
2021/03/31 01:43:51;;;;;;;0.22;0.20;;;;;;;21.46;45.97;101537.19;5073752;28;20032;-61
2021/03/31 01:46:18;;;;;;;0.73;0.30;;;;;;;21.44;46.34;101533.78;5073697;28;20025;-62
2021/03/31 01:48:45;;;;;;;0.30;0.20;;;;;;;21.51;45.89;101532.06;5073834;28;20021;-61
2021/03/31 01:51:13;;;;;;;0.60;0.10;;;;;;;21.48;46.15;101532.38;5073002;28;20037;-62
2021/03/31 01:53:38;;;;;;;0.50;0.30;;;;;;;21.40;45.67;101536.00;5073297;28;20028;-62
2021/03/31 01:56:05;;;;;;;0.50;0.13;;;;;;;21.39;45.71;101538.94;5073386;28;20379;-62
2021/03/31 01:58:34;;;;;;;0.28;0.20;;;;;;;21.35;45.48;101537.56;5073679;28;20034;-61
2021/03/31 02:01:00;;;;;;;0.40;0.20;;;;;;;21.32;45.30;101534.13;5073336;28;20032;-61
2021/03/31 02:03:29;;;;;;;0.40;0.20;;;;;;;21.33;44.68;101540.44;5073406;28;20021;-61
2021/03/31 02:05:56;;;;;;;0.47;0.20;;;;;;;21.35;44.78;101534.84;5073337;28;20037;-62
2021/03/31 02:08:22;;;;;;;0.65;0.20;;;;;;;21.37;44.47;101535.50;5073323;28;20024;-62
2021/03/31 02:10:50;;;;;;;0.32;0.10;;;;;;;21.40;44.06;101540.63;5073378;28;20021;-61
2021/03/31 02:13:17;;;;;;;0.52;0.32;;;;;;;21.44;44.54;101541.97;5073710;28;20413;-61
2021/03/31 02:15:46;;;;;;;0.30;0.10;;;;;;;21.37;45.15;101541.84;5055224;28;20031;-61
2021/03/31 02:18:15;;;;;;;0.52;0.17;;;;;;;21.43;44.91;101545.75;5073024;28;20130;-61
2021/03/31 02:20:40;;;;;;;0.82;0.30;;;;;;;21.39;44.88;101544.41;5072846;28;20503;-62
2021/03/31 02:23:06;;;;;;;0.35;0.10;;;;;;;21.29;45.04;101539.97;5072905;28;20031;-61
2021/03/31 02:25:32;;;;;;;0.25;0.25;;;;;;;21.28;44.84;101529.19;5073026;28;20025;-61
2021/03/31 02:27:58;;;;;;;0.60;0.40;;;;;;;21.30;44.76;101543.53;5072792;28;20039;-62
2021/03/31 02:30:27;;;;;;;0.50;0.10;;;;;;;21.29;44.21;101539.97;5072933;28;20025;-61
2021/03/31 02:32:56;;;;;;;0.60;0.22;;;;;;;21.30;44.42;101541.66;5072836;28;20094;-62
2021/03/31 02:35:23;;;;;;;0.50;0.10;;;;;;;21.31;44.63;101540.63;5072712;28;20020;-61
2021/03/31 02:37:59;;;;;;;0.75;0.20;;;;;;;21.34;44.24;101536.72;5072730;28;20039;-61
2021/03/31 02:40:27;;;;;;;0.45;0.20;;;;;;;21.39;44.13;101536.19;5072769;28;20127;-62
2021/03/31 02:42:54;;;;;;;0.25;0.10;;;;;;;21.42;44.53;101533.94;5072847;28;20111;-61
2021/03/31 02:45:22;;;;;;;0.47;0.20;;;;;;;21.42;44.52;101535.84;5072555;28;20029;-62
2021/03/31 02:47:49;;;;;;;0.80;0.20;;;;;;;21.41;44.67;101536.88;5072567;28;20021;-61
2021/03/31 02:50:18;;;;;;;1.23;0.40;;;;;;;21.32;44.35;101534.13;5072196;28;20039;-62
2021/03/31 02:52:45;;;;;;;0.60;0.20;;;;;;;21.32;44.28;101533.28;5071962;28;20025;-62
2021/03/31 02:55:12;;;;;;;0.30;0.25;;;;;;;21.27;43.65;101448.19;5072465;28;20052;-61
2021/03/31 02:57:38;;;;;;;0.50;0.20;;;;;;;21.22;43.80;101445.09;5072475;28;20071;-63
2021/03/31 03:00:09;;;;;;;0.32;0.20;;;;;;;21.28;43.47;101472.63;5072362;28;20020;-61
2021/03/31 03:02:41;;;;;;;0.20;0.10;;;;;;;21.32;43.21;101553.28;5072676;28;20028;-61
2021/03/31 03:05:08;;;;;;;0.70;0.47;;;;;;;21.29;43.22;101539.97;5072340;28;20473;-62
2021/03/31 03:07:33;;;;;;;0.32;0.10;;;;;;;21.30;43.88;101529.88;5072002;28;20372;-61
2021/03/31 03:10:00;;;;;;;0.50;0.20;;;;;;;21.35;44.82;101537.56;5072265;28;20039;-61
2021/03/31 03:12:27;;;;;;;0.85;0.20;;;;;;;21.36;45.25;101525.59;5072391;28;20069;-61
2021/03/31 03:14:53;;;;;;;0.80;0.38;;;;;;;21.41;45.77;101525.94;5072410;28;20021;-62
2021/03/31 03:17:20;;;;;;;0.20;0.10;;;;;;;21.38;46.55;101520.81;5072284;28;20025;-61
2021/03/31 03:19:46;;;;;;;0.57;0.30;;;;;;;21.31;46.52;101524.22;5072032;28;20028;-62
2021/03/31 03:22:13;;;;;;;1.10;0.25;;;;;;;21.28;46.92;101532.78;5072185;28;20035;-62
2021/03/31 03:24:42;;;;;;;0.80;0.30;;;;;;;21.23;46.79;101529.69;5054444;28;20027;-61
2021/03/31 03:27:12;;;;;;;0.55;0.20;;;;;;;21.27;46.42;101542.00;5072420;28;20028;-62
2021/03/31 03:29:38;;;;;;;0.15;0.10;;;;;;;21.29;46.89;101536.38;5072250;28;20025;-61
2021/03/31 03:32:04;;;;;;;0.50;0.20;;;;;;;21.26;46.65;101540.31;5072232;28;20467;-64
2021/03/31 03:34:29;;;;;;;0.70;0.20;;;;;;;21.28;46.22;101542.88;5072185;28;20495;-62
2021/03/31 03:36:54;;;;;;;0.70;0.20;;;;;;;21.32;46.63;101542.34;5072174;28;20039;-62
2021/03/31 03:39:20;;;;;;;0.60;0.20;;;;;;;21.34;46.37;101530.41;5072149;28;20031;-62
2021/03/31 03:41:45;;;;;;;0.30;0.20;;;;;;;21.35;46.13;101529.38;5054034;28;20581;-62
2021/03/31 03:44:11;;;;;;;0.55;0.50;;;;;;;21.35;46.78;101521.16;5071982;28;20418;-62
2021/03/31 03:46:36;;;;;;;0.30;0.20;;;;;;;21.41;46.20;101529.50;5072174;28;20025;-62
2021/03/31 03:49:05;;;;;;;0.40;0.30;;;;;;;21.32;46.80;101528.66;5071644;28;20031;-61
2021/03/31 03:51:31;;;;;;;0.63;0.30;;;;;;;21.27;46.08;101520.13;5072016;28;20106;-62
2021/03/31 03:53:57;;;;;;;0.30;0.30;;;;;;;21.23;46.03;101510.53;5071937;28;20037;-62
2021/03/31 03:56:23;;;;;;;0.40;0.20;;;;;;;21.24;46.23;101519.59;5071945;28;20062;-62
2021/03/31 03:58:48;;;;;;;0.50;0.28;;;;;;;21.22;45.68;101524.41;5072062;28;20024;-62
2021/03/31 04:01:14;;;;;;;0.60;0.17;;;;;;;21.25;45.70;101530.41;5071689;28;20040;-62
2021/03/31 04:03:40;;;;;;;0.20;0.13;;;;;;;21.30;45.17;101535.34;5055576;28;20028;-63
2021/03/31 04:06:06;;;;;;;0.40;0.20;;;;;;;21.37;45.16;101528.16;5075432;28;20028;-62
2021/03/31 04:08:32;;;;;;;0.38;0.10;;;;;;;21.41;44.33;101520.44;5075761;28;20056;-62
2021/03/31 04:10:58;;;;;;;0.47;0.20;;;;;;;21.57;44.43;101537.66;5075481;28;20439;-61
2021/03/31 04:13:26;;;;;;;0.00;0.00;;;;;;;21.65;44.51;101534.03;5075546;28;20051;-61
2021/03/31 04:15:58;;;;;;;0.35;0.10;;;;;;;21.75;44.44;101534.69;5075469;28;20024;-62
2021/03/31 04:18:26;;;;;;;0.40;0.10;;;;;;;21.69;45.18;101532.69;5075505;28;20033;-61
2021/03/31 04:20:52;;;;;;;0.90;0.22;;;;;;;21.66;43.94;101535.75;5075258;28;20073;-62
2021/03/31 04:23:18;;;;;;;0.43;0.22;;;;;;;21.67;44.62;101522.91;5075215;28;20455;-62
2021/03/31 04:25:43;;;;;;;0.20;0.17;;;;;;;21.65;44.55;101538.66;5075260;28;20456;-61
2021/03/31 04:28:12;;;;;;;0.30;0.20;;;;;;;21.70;44.10;101537.13;5075129;28;20064;-62
2021/03/31 04:30:39;;;;;;;0.40;0.10;;;;;;;21.74;44.01;101538.47;5075651;28;20024;-62
2021/03/31 04:33:05;;;;;;;0.20;0.10;;;;;;;21.74;44.37;101534.88;5074884;28;20085;-62
2021/03/31 04:35:31;;;;;;;0.30;0.10;;;;;;;21.77;43.95;101540.84;5075130;28;20032;-62
2021/03/31 04:38:11;;;;;;;0.20;0.10;;;;;;;21.82;43.33;101535.69;5074931;28;20032;-61
2021/03/31 04:40:59;;;;;;;0.43;0.10;;;;;;;21.83;43.84;101542.84;5075227;28;20416;-62
2021/03/31 04:43:27;;;;;;;0.20;0.10;;;;;;;21.90;43.80;101543.88;5075008;28;20103;-61
2021/03/31 04:45:59;;;;;;;0.32;0.10;;;;;;;21.93;44.09;101537.19;5074865;28;20528;-62
2021/03/31 04:48:24;;;;;;;0.68;0.28;;;;;;;21.84;43.65;101539.13;5075017;28;20028;-61
2021/03/31 04:50:50;;;;;;;0.25;0.13;;;;;;;21.78;43.66;101542.56;5074525;28;20028;-61
2021/03/31 04:53:15;;;;;;;0.85;0.20;;;;;;;21.74;43.31;101543.94;5074780;28;20017;-62
2021/03/31 04:55:40;;;;;;;0.30;0.20;;;;;;;21.80;43.62;101543.22;5074809;28;20047;-61
2021/03/31 04:58:06;;;;;;;0.95;0.13;;;;;;;21.82;43.11;101546.63;5074639;28;20017;-62
2021/03/31 05:00:31;;;;;;;0.50;0.20;;;;;;;21.83;43.24;101548.34;5074870;28;20020;-62
2021/03/31 05:02:56;;;;;;;0.40;0.15;;;;;;;21.84;42.45;101543.75;5074708;28;20356;-61
2021/03/31 05:05:22;;;;;;;0.35;0.00;;;;;;;21.89;42.58;101544.06;5074664;28;20033;-61
2021/03/31 05:07:47;;;;;;;0.40;0.10;;;;;;;21.91;42.58;101529.16;5074486;28;20383;-62
2021/03/31 05:10:12;;;;;;;0.43;0.20;;;;;;;21.90;43.58;101543.88;5074737;28;20024;-61
2021/03/31 05:12:38;;;;;;;0.20;0.20;;;;;;;21.99;44.13;101546.56;5074536;28;20154;-62
2021/03/31 05:15:05;;;;;;;0.22;0.10;;;;;;;22.05;44.61;101540.41;5073704;28;20020;-61
2021/03/31 05:17:30;;;;;;;0.10;0.10;;;;;;;22.05;45.44;101543.16;5074423;28;20044;-61
2021/03/31 05:19:55;;;;;;;1.20;0.32;;;;;;;22.01;45.69;101545.38;5073949;28;20047;-64
2021/03/31 05:22:21;;;;;;;0.32;0.10;;;;;;;21.95;46.08;101550.69;5074312;28;20027;-61
2021/03/31 05:24:46;;;;;;;0.40;0.20;;;;;;;21.90;46.44;101543.88;5074393;28;20047;-62
2021/03/31 05:27:11;;;;;;;0.40;0.10;;;;;;;21.93;45.75;101549.00;5074067;28;20027;-62
2021/03/31 05:29:36;;;;;;;0.20;0.10;;;;;;;21.93;46.00;101549.00;5074160;28;20031;-61
2021/03/31 05:32:02;;;;;;;0.47;0.20;;;;;;;21.94;46.17;101555.31;5073871;28;20021;-63
2021/03/31 05:34:28;;;;;;;0.52;0.17;;;;;;;21.95;46.24;101556.16;5074001;28;20404;-62
2021/03/31 05:36:53;;;;;;;0.10;0.10;;;;;;;22.01;45.88;101550.00;5073950;28;20444;-62
2021/03/31 05:39:18;;;;;;;0.10;0.10;;;;;;;22.04;45.70;101560.59;5073929;28;20467;-63
2021/03/31 05:41:44;;;;;;;0.30;0.03;;;;;;;22.01;45.47;101560.94;5073880;28;20024;-61
2021/03/31 05:44:09;;;;;;;0.05;0.05;;;;;;;22.02;45.74;101565.38;5074016;28;20036;-62
2021/03/31 05:46:38;;;;;;;0.13;0.10;;;;;;;22.11;45.79;101567.94;5073981;28;20038;-63
2021/03/31 05:49:03;;;;;;;0.13;0.10;;;;;;;22.06;45.75;101573.09;5073433;28;20025;-62
2021/03/31 05:51:29;;;;;;;0.32;0.10;;;;;;;21.98;45.58;101572.22;5073639;28;20028;-62
2021/03/31 05:53:54;;;;;;;1.88;0.20;;;;;;;21.93;45.59;101570.03;5073626;28;20464;-62
2021/03/31 05:56:21;;;;;;;0.05;0.00;;;;;;;21.98;44.81;101577.72;5073546;28;20029;-61
2021/03/31 05:58:46;;;;;;;0.30;0.13;;;;;;;21.93;44.88;101576.38;5073332;28;20024;-62
2021/03/31 06:01:11;;;;;;;0.20;0.10;;;;;;;21.98;44.71;101583.19;5072932;28;20063;-62
2021/03/31 06:03:37;;;;;;;0.10;0.00;;;;;;;21.99;44.39;101566.56;5067569;28;20028;-62
2021/03/31 06:06:02;;;;;;;0.30;0.00;;;;;;;22.07;43.67;101582.16;5073032;28;20134;-63
2021/03/31 06:08:28;;;;;;;0.10;0.10;;;;;;;22.07;44.05;101593.13;5072179;28;20020;-62
2021/03/31 06:10:58;;;;;;;0.10;0.10;;;;;;;22.05;43.58;101578.75;5070428;28;20028;-62
2021/03/31 06:13:23;;;;;;;0.00;0.00;;;;;;;22.08;44.22;101578.38;5072064;28;20032;-63
2021/03/31 06:15:49;;;;;;;0.25;0.10;;;;;;;22.15;44.23;101584.84;5070724;28;20511;-62
2021/03/31 06:18:16;;;;;;;0.30;0.00;;;;;;;22.15;44.19;101579.38;5070916;28;20036;-62
2021/03/31 06:20:58;;;;;;;0.15;0.00;;;;;;;22.07;44.44;101582.16;5065010;28;20027;-61
2021/03/31 06:23:40;;;;;;;0.20;0.10;;;;;;;21.98;44.67;101577.72;5073487;28;20021;-61
2021/03/31 06:26:21;;;;;;;0.25;0.10;;;;;;;22.09;44.24;101585.56;5070489;28;20056;-62
2021/03/31 06:28:56;;;;;;;0.47;0.10;;;;;;;22.07;44.19;101587.63;5070984;28;20391;-62
2021/03/31 06:31:27;;;;;;;0.20;0.10;;;;;;;22.10;44.04;101592.75;5073235;28;20030;-61
2021/03/31 06:33:53;;;;;;;0.43;0.08;;;;;;;22.07;43.69;101593.97;5067419;28;20444;-62
2021/03/31 06:36:33;;;;;;;0.28;0.20;;;;;;;22.08;43.62;101600.31;5071105;28;20144;-62
2021/03/31 06:38:58;;;;;;;0.00;0.00;;;;;;;22.13;43.61;101597.88;5070861;28;20426;-62
2021/03/31 06:44:26;;;;;;;0.22;0.10;;;;;;;22.16;44.54;101586.56;5072684;28;20033;-61
2021/03/31 06:47:05;;;;;;;0.47;0.20;;;;;;;22.22;44.80;101599.56;5072048;28;20463;-62
2021/03/31 06:49:31;;;;;;;0.10;0.10;;;;;;;22.15;45.72;101602.13;5071395;28;20028;-62
2021/03/31 06:52:05;;;;;;;0.38;0.30;;;;;;;22.05;45.73;101601.50;5071634;28;20428;-61
2021/03/31 06:54:44;;;;;;;0.50;0.20;;;;;;;22.09;45.76;101602.00;5073925;28;20128;-61
2021/03/31 06:57:12;;;;;;;0.13;0.00;;;;;;;22.14;45.69;101603.16;5068289;28;20016;-62
2021/03/31 06:59:38;;;;;;;0.10;0.00;;;;;;;22.13;45.51;101606.09;5069881;28;20103;-62
2021/03/31 07:02:05;;;;;;;0.17;0.10;;;;;;;22.13;45.46;101608.81;5069474;28;20441;-62
2021/03/31 07:04:32;;;;;;;0.10;0.10;;;;;;;22.14;45.02;101605.06;5070176;28;20012;-62
2021/03/31 07:07:09;;;;;;;0.20;0.15;;;;;;;22.10;44.56;101609.19;5066653;28;20063;-62
2021/03/31 07:09:36;;;;;;;0.03;0.00;;;;;;;22.13;44.12;101608.81;5079851;28;20024;-63
2021/03/31 07:12:18;;;;;;;0.13;0.10;;;;;;;22.18;45.13;101617.38;5090773;28;20016;-63
2021/03/31 07:14:47;;;;;;;0.00;0.00;;;;;;;22.19;45.67;101616.34;5072022;28;20055;-61
2021/03/31 07:17:20;;;;;;;0.10;0.08;;;;;;;22.24;45.88;101613.91;5067178;28;20031;-64
2021/03/31 07:19:46;;;;;;;0.10;0.00;;;;;;;22.22;46.34;101626.94;5070360;28;20047;-62
2021/03/31 07:22:13;;;;;;;0.15;0.10;;;;;;;22.09;46.27;101615.69;5071409;28;20028;-62
2021/03/31 07:24:38;;;;;;;0.20;0.00;;;;;;;22.07;45.64;101623.25;5068213;28;20024;-62
2021/03/31 07:27:05;;;;;;;0.13;0.13;;;;;;;22.10;46.09;101625.63;5074171;28;20029;-61
2021/03/31 07:29:31;;;;;;;0.03;0.00;;;;;;;22.11;46.20;101638.28;5073201;28;20025;-62
2021/03/31 07:31:59;;;;;;;0.05;0.05;;;;;;;22.10;45.67;101628.34;5058392;28;20025;-62
2021/03/31 07:34:29;;;;;;;0.10;0.10;;;;;;;22.14;45.39;101646.13;5072109;28;20044;-61
2021/03/31 07:36:55;;;;;;;0.10;0.00;;;;;;;22.15;45.07;101661.53;5071693;28;20074;-62
2021/03/31 07:39:24;;;;;;;0.20;0.10;;;;;;;22.20;44.66;101653.66;5074289;28;20017;-61
2021/03/31 07:41:50;;;;;;;0.00;0.00;;;;;;;22.20;45.00;101659.13;5075421;28;20415;-62
2021/03/31 07:44:24;;;;;;;0.52;0.05;;;;;;;22.20;45.25;101659.13;5075113;28;20056;-61
2021/03/31 07:46:52;;;;;;;;;;;;;;;22.26;45.04;101655.69;5073871;28;20391;-61
2021/03/31 07:49:18;;;;;;;0.20;0.00;;;;;;;22.20;44.82;101661.88;5070832;28;20262;-61
2021/03/31 07:52:04;;;;;;;0.47;0.03;;;;;;;22.14;44.83;101670.78;5076250;28;20504;-60
2021/03/31 07:54:32;;;;;;;0.05;0.00;;;;;;;22.14;45.22;101670.78;5074703;28;20051;-61
2021/03/31 07:56:59;;;;;;;0.13;0.00;;;;;;;22.17;45.13;101673.16;5072644;28;20066;-63
2021/03/31 07:59:25;;;;;;;0.63;0.00;;;;;;;22.16;45.32;101679.66;5073983;28;20020;-62
2021/03/31 08:01:57;;;;;;;0.25;0.10;;;;;;;22.19;45.25;101682.06;5074826;28;20104;-62
2021/03/31 08:04:24;;;;;;;0.28;0.00;;;;;;;22.20;45.40;101681.91;5072913;28;20027;-64
2021/03/31 08:06:51;;;;;;;0.17;0.00;;;;;;;22.24;45.30;101681.53;5068132;28;20033;-64
2021/03/31 08:09:28;;;;;;;0.10;0.10;;;;;;;22.24;44.80;101681.53;5071090;28;20356;-64
2021/03/31 08:11:54;;;;;;;0.10;0.10;;;;;;;22.26;44.39;101691.28;5072581;28;20021;-65
2021/03/31 08:14:26;;;;;;;0.20;0.03;;;;;;;22.24;44.10;101685.13;5070936;28;20455;-63
2021/03/31 08:16:53;;;;;;;0.25;0.10;;;;;;;22.23;44.24;101679.84;5071817;28;20020;-64
2021/03/31 08:19:20;;;;;;;0.40;0.10;;;;;;;22.16;44.26;101685.16;5071509;28;20024;-63
2021/03/31 08:21:49;;;;;;;0.08;0.00;;;;;;;22.08;44.16;101694.25;5072157;28;20395;-63
2021/03/31 08:24:17;;;;;;;0.20;0.10;;;;;;;22.05;44.58;101699.22;5071437;28;20024;-65
2021/03/31 08:26:47;;;;;;;0.95;0.10;;;;;;;22.07;45.31;101691.69;5066605;28;20021;-63
2021/03/31 08:29:18;;;;;;;0.60;0.10;;;;;;;22.10;44.90;101696.81;5072168;28;20036;-64
2021/03/31 08:31:47;;;;;;;0.20;0.10;;;;;;;22.05;45.73;101688.28;5073322;28;20467;-64
2021/03/31 08:34:14;;;;;;;0.28;0.10;;;;;;;22.07;45.64;101691.69;5069532;28;20056;-65
2021/03/31 08:36:40;;;;;;;0.10;0.00;;;;;;;22.09;45.74;101684.16;5071606;28;20383;-64
2021/03/31 08:39:07;;;;;;;0.05;0.00;;;;;;;22.17;46.04;101695.06;5054801;28;20464;-63
2021/03/31 08:41:36;;;;;;;0.22;0.10;;;;;;;22.17;45.88;101689.59;5070787;28;20027;-61
2021/03/31 08:44:22;;;;;;;0.10;0.00;;;;;;;22.22;45.75;101692.69;5069996;28;20035;-65
2021/03/31 08:46:48;;;;;;;0.20;0.05;;;;;;;22.22;46.19;101684.47;5067892;28;20487;-65
2021/03/31 08:49:28;;;;;;;0.28;0.20;;;;;;;22.18;46.54;101696.81;5068717;28;20067;-65
2021/03/31 08:51:56;;;;;;;0.57;0.30;;;;;;;22.10;46.09;101696.81;5051926;28;20052;-64
2021/03/31 08:54:45;;;;;;;0.08;0.08;;;;;;;22.05;45.85;101704.72;5066770;28;20051;-65
2021/03/31 08:57:14;;;;;;;0.28;0.00;;;;;;;22.07;45.74;101702.66;5067206;28;20059;-64
2021/03/31 08:59:42;;;;;;;0.20;0.10;;;;;;;22.06;45.34;101706.41;5071503;28;20024;-65
2021/03/31 09:02:08;;;;;;;0.10;0.05;;;;;;;22.07;45.14;101710.88;5070320;28;20035;-66
2021/03/31 09:04:33;;;;;;;0.38;0.20;;;;;;;22.10;44.83;101707.78;5071159;28;20028;-64
2021/03/31 09:07:02;;;;;;;0.03;0.00;;;;;;;22.13;44.23;101712.88;5071995;28;20028;-63
2021/03/31 09:09:33;;;;;;;0.20;0.10;;;;;;;22.15;44.11;101711.69;5072914;28;20028;-67
2021/03/31 09:12:04;;;;;;;1.52;0.13;;;;;;;22.19;44.31;101712.22;5066995;28;20121;-65
2021/03/31 09:14:29;;;;;;;0.22;0.00;;;;;;;22.18;44.30;101713.25;5071616;28;20497;-66
2021/03/31 09:16:57;;;;;;;0.00;0.00;;;;;;;22.22;44.52;101706.38;5070798;28;20040;-64
2021/03/31 09:19:25;;;;;;;0.10;0.00;;;;;;;22.26;44.32;101712.34;5054401;28;20502;-63
2021/03/31 09:21:52;;;;;;;0.00;0.00;;;;;;;22.17;44.65;101704.16;5070350;28;20066;-62
2021/03/31 09:24:22;;;;;;;1.75;0.25;;;;;;;22.10;44.33;101708.63;5071103;28;20031;-63
2021/03/31 09:27:00;;;;;;;0.40;0.10;;;;;;;22.17;44.00;101703.28;5062145;28;20017;-63
2021/03/31 09:29:26;;;;;;;0.40;0.08;;;;;;;22.16;44.21;101715.28;5072909;28;20063;-69
2021/03/31 09:31:52;;;;;;;0.25;0.10;;;;;;;22.17;44.29;101716.97;5054417;28;20729;-75
2021/03/31 09:34:18;;;;;;;3.53;0.70;;;;;;;22.17;45.21;101716.97;5055363;28;20036;-73
2021/03/31 09:37:03;;;;;;;5.13;1.13;;;;;;;22.12;46.11;101717.50;5071730;28;20082;-71
2021/03/31 09:39:50;;;;;;;4.60;1.70;;;;;;;22.20;46.04;101711.19;5072077;28;20048;-71
2021/03/31 09:42:29;;;;;;;4.00;1.52;;;;;;;22.20;46.07;101730.34;5054715;28;20050;-74
2021/03/31 09:44:55;;;;;;;2.72;1.30;;;;;;;22.19;45.77;101720.41;5062552;28;20056;-73
2021/03/31 09:47:22;;;;;;;6.10;1.23;;;;;;;22.31;46.22;101724.47;5072505;28;20048;-71
2021/03/31 09:49:49;;;;;;;4.15;1.23;;;;;;;22.28;46.24;101729.44;5071256;28;20531;-75
2021/03/31 09:52:15;;;;;;;1.98;0.80;;;;;;;22.23;46.25;101718.19;5070546;28;20024;-74
2021/03/31 09:54:46;;;;;;;2.70;0.93;;;;;;;22.19;46.21;101723.16;5071797;28;20023;-70
2021/03/31 09:57:14;;;;;;;1.08;0.60;;;;;;;22.23;45.57;101723.66;5051213;28;20032;-71
2021/03/31 09:59:41;;;;;;;3.63;1.35;;;;;;;22.20;45.48;101712.03;5058074;28;20029;-70
2021/03/31 10:02:08;;;;;;;3.67;1.02;;;;;;;22.20;44.70;101722.13;5071283;28;20028;-72
2021/03/31 10:04:38;;;;;;;2.45;0.98;;;;;;;22.23;44.52;101719.03;5071293;28;20107;-71
2021/03/31 10:07:13;;;;;;;2.35;0.80;;;;;;;22.24;43.92;101728.97;5070636;28;20385;-71
2021/03/31 10:09:47;;;;;;;3.53;0.80;;;;;;;22.27;44.35;101723.13;5068420;28;20032;-71
2021/03/31 10:12:21;;;;;;;2.28;0.90;;;;;;;22.30;44.14;101714.53;5067548;28;20029;-71
2021/03/31 10:14:50;;;;;;;2.88;0.90;;;;;;;22.31;44.40;101710.78;5070952;28;20528;-72
2021/03/31 10:17:17;;;;;;;2.70;0.55;;;;;;;22.35;44.86;101723.13;5066681;28;20066;-72
2021/03/31 10:19:42;;;;;;;3.17;0.55;;;;;;;22.34;44.72;101721.41;5068449;28;20054;-70
2021/03/31 10:22:08;;;;;;;2.38;0.90;;;;;;;22.27;45.04;101717.66;5069876;28;20028;-70
2021/03/31 10:24:36;;;;;;;2.92;0.90;;;;;;;22.26;45.10;101717.81;5070481;28;20027;-71
2021/03/31 10:27:01;;;;;;;2.65;0.85;;;;;;;22.24;44.70;101715.25;5070309;28;20115;-70
2021/03/31 10:29:26;;;;;;;2.72;0.90;;;;;;;22.26;45.34;101726.91;5070277;28;20119;-71
2021/03/31 10:31:54;;;;;;;2.60;0.63;;;;;;;22.32;45.58;101728.91;5070325;28;20479;-72
2021/03/31 10:34:19;;;;;;;2.60;1.27;;;;;;;22.33;45.34;101725.16;5071181;28;20071;-71
2021/03/31 10:39:56;;;;;;;2.08;0.90;;;;;;;22.42;45.91;101735.06;5073274;28;20031;-72
2021/03/31 10:53:58;;;;;;;2.13;0.80;;;;;;;22.38;46.50;101741.94;5030273;28;20045;-73
2021/03/31 10:56:23;;;;;;;2.55;0.80;;;;;;;22.37;46.24;101737.47;5026766;28;20373;-75
2021/03/31 10:58:49;;;;;;;2.25;0.90;;;;;;;22.42;46.00;101743.28;5029930;28;20488;-75
2021/03/31 11:01:15;;;;;;;2.25;1.27;;;;;;;22.44;45.49;101738.47;5029974;28;20506;-74
2021/03/31 11:03:40;;;;;;;3.50;1.17;;;;;;;22.44;45.63;101732.13;5030122;28;20392;-75
2021/03/31 11:06:06;;;;;;;2.88;0.90;;;;;;;22.47;45.57;101720.81;5029894;28;20120;-73
2021/03/31 11:08:31;;;;;;;4.05;0.77;;;;;;;22.51;45.38;101734.00;5034323;28;20033;-74
2021/03/31 11:10:57;;;;;;;2.97;0.90;;;;;;;22.52;44.49;101743.09;5022352;28;20056;-75
2021/03/31 11:13:23;;;;;;;2.22;1.13;;;;;;;22.51;45.19;101749.59;5027812;28;20442;-73
2021/03/31 11:15:48;;;;;;;2.17;0.80;;;;;;;22.54;45.65;101751.13;5028202;28;20033;-73
2021/03/31 11:18:55;;;;;;;3.42;1.17;;;;;;;22.53;45.57;101753.00;5029645;28;20219;-73
2021/03/31 11:26:33;;;;;;;2.28;0.77;;;;;;;22.46;44.13;101754.72;5068905;28;20138;-76
2021/03/31 11:28:58;;;;;;;3.75;1.33;;;;;;;22.45;44.03;101753.88;5069294;28;20103;-71
2021/03/31 11:31:24;;;;;;;4.65;1.33;;;;;;;22.47;43.85;101749.06;5062733;28;20039;-76
2021/03/31 11:33:50;;;;;;;2.97;0.80;;;;;;;22.51;43.61;101750.44;5061006;28;20048;-76
2021/03/31 11:36:15;;;;;;;4.53;1.50;;;;;;;22.55;43.77;101761.06;5064045;28;20021;-76
2021/03/31 11:38:41;;;;;;;5.20;1.10;;;;;;;22.58;43.75;101760.69;5068689;28;20057;-75
2021/03/31 11:41:07;;;;;;;2.90;1.25;;;;;;;22.60;43.23;101764.09;5068632;28;20112;-74
2021/03/31 11:43:33;;;;;;;5.25;1.30;;;;;;;22.60;43.96;101753.13;5052587;28;20029;-74
2021/03/31 11:45:59;;;;;;;2.97;0.95;;;;;;;22.65;44.96;101750.72;5061933;28;20061;-72
2021/03/31 11:48:24;;;;;;;1.95;0.70;;;;;;;22.64;45.31;101743.53;5069198;28;20107;-76
2021/03/31 11:50:49;;;;;;;3.50;0.90;;;;;;;22.63;44.53;101752.78;5056387;28;20052;-75
2021/03/31 11:53:15;;;;;;;3.00;0.85;;;;;;;22.59;44.87;101762.41;5061508;28;20032;-74